Time;durP1;ratioP1;P1;durP2;ratioP2;P2;SDS_P1;SDS_P2;PMS_P1;PMS_P2;Temp;Humidity;BMP_temperature;BMP_pressure;BME280_temperature;BME280_humidity;BME280_pressure;Samples;Min_cycle;Max_cycle;Signal;HPM_P1;HPM_P2
2022/11/01 00:01:57;;;;;;;7.03;5.05;;;;;;;11.07;100.00;99970.63;1747413;80;21030;-64
2022/11/01 00:04:24;;;;;;;8.65;5.05;;;;;;;11.06;100.00;99979.36;1770922;80;21017;-64
2022/11/01 00:06:50;;;;;;;6.95;4.65;;;;;;;11.04;100.00;99982.52;1746130;81;21976;-64
2022/11/01 00:09:17;;;;;;;8.50;5.00;;;;;;;11.14;100.00;99987.70;1752627;80;20993;-64
2022/11/01 00:11:44;;;;;;;14.45;7.40;;;;;;;11.17;100.00;99982.33;1750556;80;20993;-64
2022/11/01 00:14:13;;;;;;;9.98;6.42;;;;;;;11.18;100.00;99981.44;1749866;80;20992;-64
2022/11/01 00:16:41;;;;;;;9.33;5.97;;;;;;;11.19;100.00;99980.51;1766164;79;21033;-64
2022/11/01 00:19:08;;;;;;;5.97;5.10;;;;;;;11.20;100.00;99982.19;1780202;79;21215;-64
2022/11/01 00:21:35;;;;;;;5.75;5.15;;;;;;;11.23;100.00;99982.08;1757778;80;21583;-64
2022/11/01 00:24:01;;;;;;;8.25;6.10;;;;;;;11.24;100.00;99983.77;1764477;80;20976;-64
2022/11/01 00:26:28;;;;;;;21.42;14.13;;;;;;;11.28;100.00;99980.08;1767578;79;21032;-64
2022/11/01 00:28:56;;;;;;;114.03;59.50;;;;;;;11.30;100.00;99976.94;1759497;79;24915;-64
2022/11/01 00:31:23;;;;;;;78.55;39.92;;;;;;;11.27;100.00;99962.70;1789392;78;21466;-64
2022/11/01 00:33:49;;;;;;;;;;;;;;;11.22;100.00;99955.53;1790553;80;21451;-65
2022/11/01 00:36:17;;;;;;;52.17;27.33;;;;;;;11.18;100.00;99950.08;1789984;80;20206;-64
2022/11/01 00:38:43;;;;;;;51.58;28.85;;;;;;;11.19;100.00;99951.76;1788473;80;21160;-64
2022/11/01 00:41:11;;;;;;;15.75;9.03;;;;;;;11.29;100.00;99947.81;1786860;79;21040;-64
2022/11/01 00:43:45;;;;;;;12.00;7.03;;;;;;;11.30;100.00;99940.34;1788898;79;21460;-64
2022/11/01 00:46:17;;;;;;;10.98;6.28;;;;;;;11.27;100.00;99934.42;1786550;78;20981;-64
2022/11/01 00:48:44;;;;;;;13.88;6.28;;;;;;;11.13;100.00;99937.20;1782743;79;21581;-64
2022/11/01 00:51:11;;;;;;;9.68;6.05;;;;;;;11.13;100.00;99935.90;1767991;80;21061;-64
2022/11/01 00:53:37;;;;;;;10.33;6.50;;;;;;;11.01;100.00;99916.00;1766080;79;20921;-64
2022/11/01 00:56:06;;;;;;;8.80;6.57;;;;;;;11.01;100.00;99916.00;1769796;80;21421;-64
2022/11/01 00:58:34;;;;;;;8.98;6.72;;;;;;;11.12;100.00;99929.45;1756348;81;20989;-65
2022/11/01 01:01:01;;;;;;;7.75;6.33;;;;;;;11.14;100.00;99934.13;1771296;80;21027;-64
2022/11/01 01:03:28;;;;;;;9.75;6.62;;;;;;;11.13;100.00;99937.67;1768886;80;20983;-64
2022/11/01 01:05:55;;;;;;;7.62;6.00;;;;;;;11.13;100.00;99936.36;1766403;81;20992;-64
2022/11/01 01:08:22;;;;;;;10.82;6.25;;;;;;;11.15;100.00;99935.38;1756745;81;21955;-64
2022/11/01 01:10:49;;;;;;;6.50;5.83;;;;;;;11.14;100.00;99934.97;1769843;81;20981;-64
2022/11/01 01:13:16;;;;;;;8.40;6.25;;;;;;;11.12;100.00;99937.30;1770594;81;21773;-64
2022/11/01 01:15:43;;;;;;;7.95;5.80;;;;;;;11.19;100.00;99929.54;1743585;81;20924;-64
2022/11/01 01:18:10;;;;;;;10.13;5.83;;;;;;;11.18;100.00;99929.16;1782711;79;20985;-64
2022/11/01 01:20:36;;;;;;;6.80;5.92;;;;;;;11.17;100.00;99933.98;1773200;79;21310;-64
2022/11/01 01:23:03;;;;;;;11.40;6.22;;;;;;;11.20;100.00;99936.02;1774830;79;20922;-64
2022/11/01 01:25:30;;;;;;;9.28;6.20;;;;;;;11.14;100.00;99927.59;1775831;79;21567;-64
2022/11/01 01:27:57;;;;;;;8.63;6.97;;;;;;;11.17;100.00;99928.75;1775973;79;21566;-64
2022/11/01 01:30:24;;;;;;;8.08;6.00;;;;;;;11.16;100.00;99928.38;1777741;79;21064;-64
2022/11/01 01:32:50;;;;;;;7.67;6.37;;;;;;;11.18;100.00;99925.24;1785147;78;21216;-64
2022/11/01 01:35:17;;;;;;;7.93;6.30;;;;;;;11.17;100.00;99919.61;1778873;79;20961;-64
2022/11/01 01:37:45;;;;;;;9.30;5.70;;;;;;;11.17;100.00;99909.16;1788574;79;21047;-64
2022/11/01 01:40:11;;;;;;;8.47;6.10;;;;;;;11.18;100.00;99909.09;1793167;79;20993;-65
2022/11/01 01:42:40;;;;;;;8.58;5.72;;;;;;;11.18;100.00;99900.41;1783549;79;20920;-64
2022/11/01 01:45:33;;;;;;;8.73;6.17;;;;;;;11.17;100.00;99905.23;1777320;79;21112;-64
2022/11/01 01:48:10;;;;;;;10.10;6.58;;;;;;;11.20;100.00;99894.63;1772655;79;21016;-63
2022/11/01 01:50:58;;;;;;;9.45;6.50;;;;;;;11.13;100.00;99884.94;1782612;79;21021;-63
2022/11/01 01:53:35;;;;;;;6.67;6.00;;;;;;;11.13;100.00;99884.94;1785372;79;21602;-63
2022/11/01 01:56:09;;;;;;;7.53;6.35;;;;;;;11.14;100.00;99894.93;1777886;79;20948;-64
2022/11/01 01:58:43;;;;;;;8.70;6.45;;;;;;;11.14;100.00;99889.70;1783843;79;22331;-65
2022/11/01 02:01:11;;;;;;;18.75;7.08;;;;;;;11.14;100.00;99889.70;1775232;79;21040;-65
2022/11/01 02:03:39;;;;;;;9.73;6.75;;;;;;;11.13;100.00;99890.63;1779312;79;20925;-65
2022/11/01 02:06:19;;;;;;;20.60;7.92;;;;;;;11.09;100.00;99879.92;1781958;79;21668;-65
2022/11/01 02:08:50;;;;;;;12.68;7.60;;;;;;;11.02;100.00;99885.06;1794856;79;20965;-64
2022/11/01 02:11:18;;;;;;;14.40;8.13;;;;;;;11.00;100.00;99880.36;1774080;79;21692;-64
2022/11/01 02:13:45;;;;;;;13.85;7.50;;;;;;;10.96;100.00;99889.64;1780350;79;21581;-64
2022/11/01 02:16:53;;;;;;;11.75;7.33;;;;;;;10.96;100.00;99884.42;1787022;79;21308;-64
2022/11/01 02:19:46;;;;;;;8.90;7.00;;;;;;;10.98;100.00;99878.67;1804450;79;21593;-64
2022/11/01 02:22:45;;;;;;;9.73;7.75;;;;;;;11.02;100.00;99885.06;1809551;78;21471;-65
2022/11/01 02:25:38;;;;;;;16.45;7.47;;;;;;;11.05;100.00;99883.61;1790364;79;22232;-66
2022/11/01 02:28:40;;;;;;;11.88;7.30;;;;;;;11.05;100.00;99883.61;1784562;78;21009;-65
2022/11/01 02:31:53;;;;;;;11.08;7.00;;;;;;;11.06;100.00;99890.08;1787394;79;20994;-65
2022/11/01 02:34:34;;;;;;;17.67;7.83;;;;;;;11.10;100.00;99897.31;1786451;79;21480;-65
2022/11/01 02:37:15;;;;;;;14.78;10.63;;;;;;;11.10;100.00;99897.31;1793178;79;21048;-65
2022/11/01 02:39:50;;;;;;;13.90;7.72;;;;;;;11.10;100.00;99897.31;1802434;79;21745;-63
2022/11/01 02:42:31;;;;;;;15.68;6.35;;;;;;;11.12;100.00;99890.26;1802083;78;20994;-63
2022/11/01 02:45:08;;;;;;;14.60;6.50;;;;;;;11.16;100.00;99874.80;1805947;79;21048;-65
2022/11/01 02:47:38;;;;;;;12.13;6.20;;;;;;;11.21;100.00;99884.59;1787864;79;21109;-65
2022/11/01 02:50:08;;;;;;;8.85;6.33;;;;;;;11.23;100.00;99887.98;1803550;79;20937;-63
2022/11/01 02:52:39;;;;;;;9.33;6.53;;;;;;;11.19;100.00;99881.19;1776707;79;21601;-64
2022/11/01 02:55:28;;;;;;;16.70;5.60;;;;;;;11.16;100.00;99878.73;1801248;79;21519;-64
2022/11/01 02:57:46;;;;;;;10.70;5.67;;;;;;;11.16;100.00;99873.50;1790199;79;20985;-64
2022/11/01 03:00:29;;;;;;;8.25;6.40;;;;;;;11.09;100.00;99880.79;1793111;79;20922;-64
2022/11/01 03:03:07;;;;;;;13.35;5.95;;;;;;;11.04;100.00;99854.48;1747920;81;20976;-64
2022/11/01 03:05:54;;;;;;;7.30;6.10;;;;;;;11.04;100.00;99854.48;1745534;80;21103;-64
2022/11/01 03:08:24;;;;;;;;;;;;;;;11.12;100.00;99874.58;1763337;81;21048;-63
2022/11/01 03:11:05;;;;;;;6.65;5.53;;;;;;;11.11;100.00;99871.55;1809501;79;20154;-64
2022/11/01 03:14:02;;;;;;;7.45;5.65;;;;;;;11.02;100.00;99873.30;1772009;80;21521;-64
2022/11/01 03:17:11;;;;;;;9.15;5.87;;;;;;;11.07;100.00;99869.55;1744860;80;21045;-64
2022/11/01 03:19:51;;;;;;;7.72;5.60;;;;;;;11.07;100.00;99872.63;1752420;80;21197;-64
2022/11/01 03:22:29;;;;;;;6.03;5.35;;;;;;;11.02;100.00;99886.37;1758868;80;20953;-65
2022/11/01 03:25:38;;;;;;;6.67;5.12;;;;;;;11.04;100.00;99887.16;1746315;78;21120;-65
2022/11/01 03:28:16;;;;;;;7.92;5.15;;;;;;;11.06;100.00;99890.52;1767933;81;20993;-64
2022/11/01 03:31:01;;;;;;;4.70;4.28;;;;;;;11.06;100.00;99896.61;1733074;81;21046;-65
2022/11/01 03:33:29;;;;;;;6.50;4.65;;;;;;;11.08;100.00;99893.91;1760472;79;21137;-65
2022/11/01 03:36:01;;;;;;;5.30;4.08;;;;;;;11.06;100.00;99898.36;1763638;79;21522;-64
2022/11/01 03:38:33;;;;;;;6.53;4.22;;;;;;;11.01;100.00;99897.72;1764506;80;21671;-65
2022/11/01 03:41:07;;;;;;;5.08;3.75;;;;;;;11.02;100.00;99883.75;1761270;79;21009;-65
2022/11/01 03:43:36;;;;;;;5.87;3.65;;;;;;;11.03;100.00;99885.44;1739621;80;20918;-64
2022/11/01 03:46:03;;;;;;;5.25;3.70;;;;;;;11.02;100.00;99883.75;1766794;78;21088;-64
2022/11/01 03:48:30;;;;;;;4.90;3.90;;;;;;;11.04;100.00;99879.31;1758844;81;20937;-64
2022/11/01 03:50:57;;;;;;;3.95;3.42;;;;;;;10.98;100.00;99877.37;1765866;79;21032;-64
2022/11/01 03:53:24;;;;;;;3.83;3.33;;;;;;;11.03;100.00;99877.59;1765118;81;21511;-64
2022/11/01 03:55:50;;;;;;;3.52;3.12;;;;;;;11.04;100.00;99875.39;1759017;79;21608;-64
2022/11/01 03:58:17;;;;;;;3.20;2.90;;;;;;;11.04;100.00;99868.86;1768815;81;21012;-64
2022/11/01 04:00:46;;;;;;;3.35;3.05;;;;;;;11.01;100.00;99867.67;1766426;79;21697;-64
2022/11/01 04:03:13;;;;;;;2.95;2.65;;;;;;;11.01;100.00;99866.36;1769096;79;21665;-65
2022/11/01 04:05:41;;;;;;;2.50;2.30;;;;;;;11.01;100.00;99863.75;1746638;81;21064;-64
2022/11/01 04:08:11;;;;;;;3.47;3.10;;;;;;;10.97;100.00;99861.28;1765319;79;21581;-65
2022/11/01 04:10:37;;;;;;;4.28;3.33;;;;;;;10.97;100.00;99861.28;1731088;81;21099;-64
2022/11/01 04:13:04;;;;;;;4.73;3.50;;;;;;;10.91;100.00;99852.43;1769212;79;21082;-64
2022/11/01 04:21:23;;;;;;;3.87;3.15;;;;;;;10.86;100.00;99841.34;1761040;80;20427;-64
2022/11/01 04:23:51;;;;;;;3.37;2.83;;;;;;;10.81;100.00;99842.05;1762223;80;21169;-64
2022/11/01 04:26:21;;;;;;;2.67;2.45;;;;;;;10.72;100.00;99841.14;1769675;80;21099;-64
2022/11/01 04:28:57;;;;;;;2.83;2.52;;;;;;;10.64;100.00;99838.03;1769748;80;20973;-64
2022/11/01 04:31:37;;;;;;;2.92;2.50;;;;;;;10.60;100.00;99837.80;1769790;80;21036;-65
2022/11/01 04:34:05;;;;;;;2.37;2.17;;;;;;;10.57;100.00;99841.84;1769823;80;20934;-64
2022/11/01 04:36:31;;;;;;;3.47;3.10;;;;;;;10.48;100.00;99834.82;1769331;80;21142;-65
2022/11/01 04:38:58;;;;;;;3.22;2.90;;;;;;;10.47;100.00;99830.53;1739977;81;21036;-64
2022/11/01 04:41:27;;;;;;;3.20;2.50;;;;;;;10.43;100.00;99823.73;1764661;80;21015;-65
2022/11/01 04:43:56;;;;;;;3.35;3.00;;;;;;;10.50;100.00;99821.25;1770429;79;21012;-65
2022/11/01 04:46:23;;;;;;;4.33;3.00;;;;;;;10.46;100.00;99815.77;1769592;79;21750;-65
2022/11/01 04:48:50;;;;;;;3.58;3.10;;;;;;;10.52;100.00;99807.64;1775117;80;21080;-64
2022/11/01 04:51:17;;;;;;;3.50;3.02;;;;;;;10.43;100.00;99795.02;1769813;80;21503;-65
2022/11/01 04:53:44;;;;;;;5.10;4.00;;;;;;;10.46;100.00;99790.96;1758908;80;20985;-65
2022/11/01 04:56:12;;;;;;;3.40;3.10;;;;;;;10.46;100.00;99790.96;1767907;80;21023;-65
2022/11/01 04:58:39;;;;;;;3.92;3.25;;;;;;;10.47;100.00;99786.15;1768804;80;21009;-65
2022/11/01 05:01:07;;;;;;;4.45;3.45;;;;;;;10.29;100.00;99792.19;1771008;79;21458;-64
2022/11/01 05:03:34;;;;;;;3.60;3.30;;;;;;;10.19;100.00;99780.42;1777459;79;20990;-65
2022/11/01 05:06:01;;;;;;;4.43;3.43;;;;;;;10.19;100.00;99779.13;1770441;80;21483;-64
2022/11/01 05:08:28;;;;;;;3.85;3.35;;;;;;;10.15;100.00;99773.66;1768425;79;21017;-65
2022/11/01 05:10:55;;;;;;;4.58;3.62;;;;;;;10.08;100.00;99768.73;1758582;80;21028;-65
2022/11/01 05:13:22;;;;;;;4.42;3.45;;;;;;;10.09;100.00;99775.62;1761939;79;21122;-65
2022/11/01 05:15:49;;;;;;;3.57;3.10;;;;;;;10.00;100.00;99762.16;1764349;79;21017;-64
2022/11/01 05:18:16;;;;;;;3.80;3.27;;;;;;;9.94;100.00;99739.80;1779794;79;21432;-64
2022/11/01 05:20:43;;;;;;;4.73;3.83;;;;;;;10.03;100.00;99749.81;1769903;79;21005;-65
2022/11/01 05:23:10;;;;;;;4.20;3.47;;;;;;;10.04;100.00;99751.96;1771780;78;22124;-64
2022/11/01 05:25:36;;;;;;;5.73;4.63;;;;;;;10.00;100.00;99752.56;1784217;79;21479;-65
2022/11/01 05:28:10;;;;;;;4.77;4.07;;;;;;;10.00;100.00;99742.13;1764721;79;20966;-65
2022/11/01 05:30:38;;;;;;;5.67;4.58;;;;;;;10.03;100.00;99744.60;1775430;78;20914;-65
2022/11/01 05:33:06;;;;;;;4.80;3.77;;;;;;;9.99;100.00;99745.64;1797953;78;21021;-65
2022/11/01 05:35:34;;;;;;;4.83;4.33;;;;;;;9.97;100.00;99754.44;1787875;78;21075;-65
2022/11/01 05:38:03;;;;;;;4.53;3.67;;;;;;;10.02;100.00;99760.31;1781510;79;21116;-65
2022/11/01 05:40:30;;;;;;;5.28;3.55;;;;;;;9.99;100.00;99756.53;1755983;80;21057;-65
2022/11/01 05:42:57;;;;;;;4.22;3.10;;;;;;;9.93;100.00;99762.87;1801142;78;20918;-65
2022/11/01 05:45:24;;;;;;;4.28;3.58;;;;;;;9.82;100.00;99745.54;1810291;78;21410;-65
2022/11/01 05:47:51;;;;;;;5.20;4.03;;;;;;;9.85;100.00;99737.58;1798655;78;21542;-65
2022/11/01 05:50:19;;;;;;;4.08;3.33;;;;;;;9.82;100.00;99742.93;1798968;78;21473;-65
2022/11/01 05:52:45;;;;;;;;;;;;;;;9.82;100.00;99742.93;1803578;78;20965;-65
2022/11/01 05:55:12;;;;;;;6.37;3.77;;;;;;;9.76;100.00;99741.90;1803985;78;20192;-65
2022/11/01 05:57:39;;;;;;;5.15;3.52;;;;;;;9.82;100.00;99740.33;1795722;78;20999;-65
2022/11/01 06:00:08;;;;;;;4.45;3.77;;;;;;;9.81;100.00;99730.81;1779558;80;21045;-65
2022/11/01 06:02:34;;;;;;;5.22;3.95;;;;;;;9.75;100.00;99742.36;1796643;78;21063;-65
2022/11/01 06:05:01;;;;;;;4.00;3.25;;;;;;;9.76;100.00;99739.30;1798952;78;21495;-64
2022/11/01 06:07:28;;;;;;;4.28;3.85;;;;;;;9.82;100.00;99716.85;1776644;80;21075;-64
2022/11/01 06:09:55;;;;;;;4.67;3.50;;;;;;;9.82;100.00;99721.61;1814783;78;20934;-64
2022/11/01 06:12:27;;;;;;;3.45;2.95;;;;;;;9.84;100.00;99715.03;1811315;78;21515;-64
2022/11/01 06:14:54;;;;;;;4.87;3.55;;;;;;;9.85;100.00;99722.77;1761684;80;21138;-65
2022/11/01 06:17:21;;;;;;;4.07;3.67;;;;;;;9.85;100.00;99719.32;1840344;77;20969;-64
2022/11/01 06:19:48;;;;;;;5.97;4.10;;;;;;;9.86;100.00;99731.47;1842246;77;20966;-64
2022/11/01 06:22:15;;;;;;;5.50;4.28;;;;;;;9.90;100.00;99744.75;1841009;77;20946;-64
2022/11/01 06:24:42;;;;;;;4.65;3.72;;;;;;;9.98;100.00;99740.04;1844470;77;20981;-65
2022/11/01 06:27:09;;;;;;;4.47;3.83;;;;;;;10.01;100.00;99738.59;1843208;77;21831;-64
2022/11/01 06:29:35;;;;;;;4.90;4.20;;;;;;;10.04;100.00;99751.50;1844895;77;21056;-64
2022/11/01 06:32:03;;;;;;;7.15;4.25;;;;;;;10.05;100.00;99734.95;1834279;77;21428;-65
2022/11/01 06:34:31;;;;;;;5.47;4.28;;;;;;;10.05;100.00;99725.82;1838001;77;21515;-65
2022/11/01 06:36:58;;;;;;;8.73;4.22;;;;;;;10.09;100.00;99728.67;1838257;76;21511;-65
2022/11/01 06:39:25;;;;;;;6.28;4.20;;;;;;;10.04;100.00;99735.84;1838986;76;22231;-65
2022/11/01 06:41:52;;;;;;;6.10;4.70;;;;;;;10.08;100.00;99745.25;1842519;76;21582;-64
2022/11/01 06:44:20;;;;;;;7.30;5.33;;;;;;;10.23;100.00;99750.69;1836601;77;22319;-65
2022/11/01 06:46:47;;;;;;;8.68;5.75;;;;;;;10.26;100.00;99743.55;1837010;76;21009;-64
2022/11/01 06:49:13;;;;;;;8.87;5.70;;;;;;;10.37;100.00;99745.71;1832984;76;20993;-64
2022/11/01 06:51:40;;;;;;;10.30;5.60;;;;;;;10.42;100.00;99733.30;1833775;76;21490;-65
2022/11/01 06:54:07;;;;;;;8.23;6.28;;;;;;;10.45;100.00;99724.02;1826060;77;25007;-65
2022/11/01 06:56:33;;;;;;;10.55;7.62;;;;;;;10.49;100.00;99726.86;1808083;78;20903;-65
2022/11/01 06:59:00;;;;;;;10.10;7.43;;;;;;;10.46;100.00;99724.39;1806403;78;20936;-65
2022/11/01 07:01:28;;;;;;;9.83;7.73;;;;;;;10.52;100.00;99718.04;1799601;78;21324;-64
2022/11/01 07:03:54;;;;;;;;;;;;;;;10.58;100.00;99709.07;1813963;78;21277;-65
2022/11/01 07:06:23;;;;;;;23.62;21.12;;;;;;;10.61;100.00;99707.62;1807059;78;20452;-65
2022/11/01 07:08:50;;;;;;;16.73;15.03;;;;;;;10.61;100.00;99708.92;1806144;78;21000;-64
2022/11/01 07:11:16;;;;;;;25.32;20.50;;;;;;;10.62;100.00;99711.94;1815253;78;21025;-64
2022/11/01 07:13:43;;;;;;;10.87;9.63;;;;;;;10.65;100.00;99700.05;1813143;77;21022;-65
2022/11/01 07:16:10;;;;;;;11.90;8.63;;;;;;;10.70;100.00;99692.84;1810588;78;21102;-65
2022/11/01 07:18:36;;;;;;;13.17;11.07;;;;;;;10.70;100.00;99694.14;1746420;80;21344;-65
2022/11/01 07:21:05;;;;;;;10.70;7.53;;;;;;;10.73;100.00;99691.38;1796227;78;21028;-65
2022/11/01 07:23:32;;;;;;;10.70;7.87;;;;;;;10.79;100.00;99690.23;1796896;78;21005;-65
2022/11/01 07:25:59;;;;;;;8.58;7.28;;;;;;;10.77;100.00;99688.99;1755606;80;21678;-64
2022/11/01 07:28:25;;;;;;;11.15;8.30;;;;;;;10.74;100.00;99690.45;1767525;80;21487;-64
2022/11/01 07:30:53;;;;;;;11.68;8.00;;;;;;;10.75;100.00;99696.05;1762031;80;21032;-64
2022/11/01 07:33:21;;;;;;;10.70;7.53;;;;;;;10.80;100.00;99688.84;1749713;80;21136;-64
2022/11/01 07:35:48;;;;;;;10.20;7.65;;;;;;;10.80;100.00;99683.62;1767904;79;22257;-66
2022/11/01 07:38:15;;;;;;;11.70;7.60;;;;;;;10.84;100.00;99693.02;1766377;80;21832;-65
2022/11/01 07:40:43;;;;;;;10.40;6.85;;;;;;;10.87;100.00;99707.23;1762467;80;21462;-65
2022/11/01 07:43:10;;;;;;;9.33;7.12;;;;;;;10.89;100.00;99710.59;1763737;80;21068;-64
2022/11/01 07:45:37;;;;;;;10.03;7.93;;;;;;;10.92;100.00;99706.55;1764015;81;21099;-65
2022/11/01 07:48:09;;;;;;;11.12;7.85;;;;;;;10.84;100.00;99708.69;1764241;81;21690;-64
2022/11/01 07:50:37;;;;;;;11.78;8.10;;;;;;;10.87;100.00;99702.00;1807991;78;21570;-64
2022/11/01 07:53:12;;;;;;;10.88;7.95;;;;;;;10.83;100.00;99696.52;1807131;79;21114;-64
2022/11/01 07:55:41;;;;;;;11.15;8.18;;;;;;;10.80;100.00;99696.67;1802666;78;27376;-64
2022/11/01 07:58:08;;;;;;;12.85;8.45;;;;;;;10.80;100.00;99696.67;1807624;79;21081;-64
2022/11/01 08:00:36;;;;;;;13.00;8.58;;;;;;;10.81;100.00;99689.25;1807728;79;20974;-65
2022/11/01 08:03:08;;;;;;;11.15;8.30;;;;;;;10.85;100.00;99676.41;1808105;79;21009;-64
2022/11/01 08:05:35;;;;;;;9.73;8.10;;;;;;;10.85;100.00;99676.41;1799240;79;21165;-65
2022/11/01 08:08:12;;;;;;;11.63;8.50;;;;;;;10.89;100.00;99675.32;1808017;78;21053;-65
2022/11/01 08:10:41;;;;;;;10.58;8.23;;;;;;;10.96;100.00;99675.89;1748820;81;21016;-65
2022/11/01 08:13:23;;;;;;;14.68;9.95;;;;;;;10.95;100.00;99685.49;1779339;79;21052;-65
2022/11/01 08:15:52;;;;;;;11.88;9.28;;;;;;;10.97;100.00;99686.23;1755409;80;21072;-65
2022/11/01 08:18:21;;;;;;;15.98;9.30;;;;;;;11.04;100.00;99665.06;1749354;80;21079;-65
2022/11/01 08:20:48;;;;;;;13.83;10.32;;;;;;;11.03;100.00;99662.88;1753585;81;22455;-64
2022/11/01 08:23:15;;;;;;;19.45;10.70;;;;;;;11.04;100.00;99668.98;1754280;81;21037;-64
2022/11/01 08:25:43;;;;;;;16.52;10.08;;;;;;;11.09;100.00;99665.22;1748530;81;21028;-65
2022/11/01 08:28:15;;;;;;;;;;;;;;;11.16;100.00;99668.35;1750670;81;21511;-64
2022/11/01 08:30:45;;;;;;;15.25;10.10;;;;;;;11.10;100.00;99675.20;1745286;81;22037;-64
2022/11/01 08:33:12;;;;;;;14.98;10.43;;;;;;;11.08;100.00;99679.65;1754613;81;20944;-65
2022/11/01 08:35:39;;;;;;;21.15;9.88;;;;;;;11.09;100.00;99676.10;1747853;81;21228;-65
2022/11/01 08:38:06;;;;;;;20.40;11.57;;;;;;;11.16;100.00;99676.19;1752455;80;21172;-64
2022/11/01 08:40:33;;;;;;;13.43;9.50;;;;;;;11.25;100.00;99669.19;1752440;81;21014;-64
2022/11/01 08:43:00;;;;;;;14.65;10.13;;;;;;;11.27;100.00;99673.87;1750502;81;24364;-64
2022/11/01 08:45:27;;;;;;;13.28;10.60;;;;;;;11.21;100.00;99697.72;1753281;81;21585;-64
2022/11/01 08:49:19;;;;;;;14.68;10.23;;;;;;;11.27;100.00;99758.83;1882581;74;22769;-64
2022/11/01 08:51:46;;;;;;;14.27;10.07;;;;;;;11.30;100.00;99741.68;1832647;76;20975;-63
2022/11/01 08:54:12;;;;;;;13.70;11.85;;;;;;;11.29;100.00;99729.55;1841816;76;21963;-65
2022/11/01 08:56:39;;;;;;;19.60;10.75;;;;;;;11.29;100.00;99770.06;1846213;76;21049;-64
2022/11/01 08:59:07;;;;;;;14.70;10.53;;;;;;;11.36;100.00;99745.29;1846445;77;21005;-64
2022/11/01 09:01:34;;;;;;;16.02;10.55;;;;;;;11.46;100.00;99763.16;1845691;76;20959;-64
2022/11/01 09:04:01;;;;;;;;;;;;;;;11.52;100.00;99744.06;1844918;77;21007;-64
2022/11/01 09:06:28;;;;;;;11.78;9.80;;;;;;;11.57;100.00;99737.31;1799774;79;22443;-65
2022/11/01 09:08:56;;;;;;;13.28;9.38;;;;;;;11.60;100.00;99756.76;1845827;76;22254;-66
2022/11/01 09:11:24;;;;;;;14.05;9.75;;;;;;;11.60;100.00;99739.77;1846217;76;21599;-63
2022/11/01 09:13:53;;;;;;;16.07;10.23;;;;;;;11.57;100.00;99751.22;1842075;76;20927;-63
2022/11/01 09:16:19;;;;;;;13.08;10.68;;;;;;;11.57;100.00;99726.84;1844012;76;20981;-63
2022/11/01 09:18:46;;;;;;;12.07;8.83;;;;;;;11.58;100.00;99734.59;1843413;76;21251;-64
2022/11/01 09:21:14;;;;;;;18.17;10.35;;;;;;;11.63;100.00;99725.22;1844567;76;20933;-64
2022/11/01 09:23:41;;;;;;;15.00;10.03;;;;;;;11.68;100.00;99721.91;1840683;76;21102;-65
2022/11/01 09:26:10;;;;;;;16.35;9.23;;;;;;;11.60;100.00;99714.92;1816702;77;20938;-64
2022/11/01 09:28:37;;;;;;;12.90;9.78;;;;;;;11.54;100.00;99708.67;1836771;76;21032;-65
2022/11/01 09:31:07;;;;;;;13.65;10.23;;;;;;;11.54;100.00;99708.67;1831072;76;21433;-65
2022/11/01 09:33:34;;;;;;;14.15;11.12;;;;;;;11.53;100.00;99707.83;1832554;77;20885;-65
2022/11/01 09:36:01;;;;;;;15.63;11.43;;;;;;;11.55;100.00;99702.53;1846087;76;20942;-65
2022/11/01 09:38:28;;;;;;;16.75;14.30;;;;;;;11.64;100.00;99712.05;1841442;76;21054;-65
2022/11/01 09:41:03;;;;;;;15.45;10.60;;;;;;;11.71;100.00;99706.05;1823859;76;20966;-65
2022/11/01 09:43:34;;;;;;;14.60;11.10;;;;;;;11.76;100.00;99698.81;1831277;76;21048;-65
2022/11/01 09:46:05;;;;;;;15.70;12.88;;;;;;;11.81;100.00;99686.31;1828246;76;21497;-66
2022/11/01 09:48:35;;;;;;;13.65;10.15;;;;;;;11.83;100.00;99689.70;1854786;76;21035;-65
2022/11/01 09:51:13;;;;;;;12.68;9.28;;;;;;;11.89;100.00;99689.03;1837807;76;21146;-64
2022/11/01 09:53:40;;;;;;;15.10;11.45;;;;;;;12.01;100.00;99684.44;1836423;76;21528;-65
2022/11/01 09:56:11;;;;;;;;;;;;;;;12.01;100.00;99684.44;1839081;76;21574;-65
2022/11/01 09:58:43;;;;;;;12.30;10.98;;;;;;;12.02;100.00;99689.61;1827816;76;20143;-65
2022/11/01 10:01:18;;;;;;;15.15;12.45;;;;;;;12.06;100.00;99677.19;1838874;76;21026;-65
2022/11/01 10:03:58;;;;;;;17.35;11.83;;;;;;;12.11;100.00;99683.03;1825912;76;21002;-64
2022/11/01 10:06:34;;;;;;;17.70;14.25;;;;;;;12.09;100.00;99677.86;1830198;77;20960;-65
2022/11/01 10:09:21;;;;;;;17.32;12.35;;;;;;;12.05;100.00;99668.97;1832566;76;21534;-65
2022/11/01 10:12:22;;;;;;;12.20;10.18;;;;;;;12.14;100.00;99678.94;1834670;76;20973;-65
2022/11/01 10:15:21;;;;;;;13.78;11.22;;;;;;;12.15;100.00;99672.76;1834673;76;20999;-65
2022/11/01 10:17:51;;;;;;;13.75;9.08;;;;;;;12.19;100.00;99667.75;1776138;79;21021;-65
2022/11/01 10:20:31;;;;;;;12.82;10.53;;;;;;;12.24;100.00;99669.66;1774417;79;21006;-65
2022/11/01 10:22:59;;;;;;;10.53;8.78;;;;;;;12.27;100.00;99657.70;1774386;79;22431;-65
2022/11/01 10:25:29;;;;;;;10.30;8.25;;;;;;;12.21;100.00;99642.34;1749562;79;21551;-65
2022/11/01 10:28:25;;;;;;;12.75;8.83;;;;;;;12.05;100.00;99644.11;1780380;78;21060;-65
2022/11/01 10:30:57;;;;;;;10.85;8.25;;;;;;;11.95;100.00;99646.37;1774866;78;21061;-63
2022/11/01 10:33:44;;;;;;;13.68;8.25;;;;;;;11.91;100.00;99642.71;1768379;79;21078;-65
2022/11/01 10:36:13;;;;;;;;;;;;;;;11.91;100.00;99636.17;1776647;79;21478;-63
2022/11/01 10:38:47;;;;;;;13.88;9.15;;;;;;;11.94;100.00;99639.92;1775820;79;20155;-64
2022/11/01 10:41:28;;;;;;;12.80;9.33;;;;;;;11.82;100.00;99620.48;1775998;79;21652;-64
2022/11/01 10:44:00;;;;;;;13.58;10.10;;;;;;;11.82;100.00;99620.48;1781710;79;21017;-64
2022/11/01 10:46:31;;;;;;;12.70;10.63;;;;;;;12.01;100.00;99643.87;1775693;80;21030;-64
2022/11/01 10:49:03;;;;;;;19.98;17.87;;;;;;;12.04;100.00;99647.64;1779598;79;21422;-64
2022/11/01 10:51:33;;;;;;;15.90;13.13;;;;;;;12.10;100.00;99640.78;1775101;79;21645;-64
2022/11/01 10:54:03;;;;;;;12.03;9.63;;;;;;;12.15;100.00;99631.34;1792006;76;21056;-65
2022/11/01 10:56:40;;;;;;;10.88;8.05;;;;;;;12.13;100.00;99620.98;1840307;76;21546;-65
2022/11/01 10:59:21;;;;;;;11.55;10.28;;;;;;;12.19;100.00;99638.96;1840532;76;21428;-65
2022/11/01 11:01:51;;;;;;;13.25;10.10;;;;;;;12.18;100.00;99650.34;1840614;76;21133;-64
2022/11/01 11:04:23;;;;;;;13.48;10.13;;;;;;;12.33;100.00;99653.06;1841391;76;20973;-65
2022/11/01 11:06:52;;;;;;;13.10;9.93;;;;;;;12.28;100.00;99655.45;1843750;76;20924;-65
2022/11/01 11:09:33;;;;;;;10.80;8.53;;;;;;;12.37;100.00;99666.35;1840514;76;21121;-65
2022/11/01 11:12:05;;;;;;;12.03;8.50;;;;;;;12.40;100.00;99670.11;1836557;77;20986;-64
2022/11/01 11:14:34;;;;;;;11.73;8.88;;;;;;;12.36;100.00;99663.37;1840752;77;21544;-65
2022/11/01 11:17:03;;;;;;;16.12;14.05;;;;;;;12.27;100.00;99662.95;1846181;77;20889;-65
2022/11/01 11:19:33;;;;;;;14.23;11.50;;;;;;;12.19;100.00;99660.38;1813238;77;21152;-64
2022/11/01 11:22:05;;;;;;;13.65;10.65;;;;;;;12.22;100.00;99667.58;1839751;76;21060;-65
2022/11/01 11:24:36;;;;;;;17.42;11.63;;;;;;;12.26;100.00;99654.69;1838042;77;20955;-65
2022/11/01 11:27:19;;;;;;;14.90;12.10;;;;;;;12.26;100.00;99650.77;1839754;77;21272;-65
2022/11/01 11:29:52;;;;;;;16.42;12.63;;;;;;;12.21;100.00;99663.29;1835935;76;21566;-64
2022/11/01 11:32:24;;;;;;;17.50;13.28;;;;;;;12.13;100.00;99665.48;1839176;77;21513;-64
2022/11/01 11:34:58;;;;;;;15.83;11.80;;;;;;;12.12;100.00;99648.06;1838766;77;21143;-64
2022/11/01 11:37:32;;;;;;;16.40;10.48;;;;;;;12.23;100.00;99650.94;1841327;77;21083;-64
2022/11/01 11:40:23;;;;;;;16.40;11.57;;;;;;;12.31;100.00;99659.21;1841723;76;21454;-65
2022/11/01 11:42:53;;;;;;;16.95;12.33;;;;;;;12.38;100.00;99658.42;1836881;77;20963;-65
2022/11/01 11:45:29;;;;;;;16.37;11.88;;;;;;;12.37;100.00;99653.27;1816199;77;21012;-65
2022/11/01 11:48:20;;;;;;;19.30;13.80;;;;;;;12.26;100.00;99650.77;1833730;77;21009;-63